createdAt,value
2019-05-15T00:01:28.528Z,79.78
2019-05-15T00:03:59.995Z,79.85
2019-05-15T00:06:30.142Z,80.05
2019-05-15T00:09:00.387Z,81.61
2019-05-15T00:11:31.166Z,83.43
2019-05-15T00:14:01.429Z,83.55
2019-05-15T00:16:31.778Z,84.09
2019-05-15T00:19:02.126Z,84.19
2019-05-15T00:21:33.385Z,84.38
2019-05-15T00:24:03.722Z,84.86
2019-05-15T00:26:34.230Z,84.68
2019-05-15T00:29:12.743Z,84.49
2019-05-15T00:31:38.733Z,85.71
2019-05-15T00:34:12.781Z,85.38
2019-05-15T00:36:41.245Z,85.06
2019-05-15T00:39:11.455Z,85.06
2019-05-15T00:41:53.353Z,85.47
2019-05-15T00:44:13.607Z,85.57
2019-05-15T00:46:44.035Z,85.71
2019-05-15T00:49:14.165Z,86.05
2019-05-15T00:51:44.451Z,85.89
2019-05-15T00:54:14.842Z,85.84
2019-05-15T00:56:48.451Z,86.57
2019-05-15T00:59:26.369Z,87.67
2019-05-15T01:01:52.924Z,87.30
2019-05-15T01:04:23.270Z,87.29
2019-05-15T01:06:53.504Z,87.26
2019-05-15T01:09:25.882Z,87.31
2019-05-15T01:11:56.007Z,88.15
2019-05-15T01:14:27.852Z,88.65
2019-05-15T01:16:59.127Z,88.49
2019-05-15T01:19:31.061Z,88.29
2019-05-15T01:22:01.611Z,88.23
2019-05-15T01:24:31.809Z,89.16
2019-05-15T01:27:02.176Z,89.08
2019-05-15T01:29:43.750Z,88.57
2019-05-15T01:32:05.054Z,89.93
2019-05-15T01:34:35.242Z,90.25
2019-05-15T01:37:05.473Z,89.27
2019-05-15T01:39:35.751Z,89.91
2019-05-15T01:42:08.216Z,90.18
2019-05-15T01:44:38.935Z,89.90
2019-05-15T01:47:09.407Z,89.65
2019-05-15T01:49:39.558Z,90.37
2019-05-15T01:52:09.862Z,90.37
2019-05-15T01:54:39.997Z,90.48
2019-05-15T01:57:10.169Z,90.73
2019-05-15T01:59:53.932Z,90.53
2019-05-15T02:02:13.551Z,91.25
2019-05-15T02:04:43.736Z,91.37
2019-05-15T02:07:14.786Z,91.50
2019-05-15T02:09:45.131Z,92.36
2019-05-15T02:12:15.779Z,92.37
2019-05-15T02:14:48.418Z,92.54
2019-05-15T02:17:21.030Z,91.86
2019-05-15T02:19:51.271Z,92.02
2019-05-15T02:22:21.621Z,91.37
2019-05-15T02:24:52.013Z,92.31
2019-05-15T02:27:22.486Z,92.41
2019-05-15T02:29:52.841Z,91.60
2019-05-15T02:32:23.281Z,92.59
2019-05-15T02:34:53.489Z,92.12
2019-05-15T02:37:23.811Z,92.81
2019-05-15T02:39:54.577Z,92.46
2019-05-15T02:42:25.118Z,92.56
2019-05-15T02:44:58.503Z,92.51
2019-05-15T02:47:29.356Z,92.39
2019-05-15T02:49:59.676Z,92.48
2019-05-15T02:52:29.845Z,92.67
2019-05-15T02:55:00.155Z,93.53
2019-05-15T02:57:30.342Z,93.30
2019-05-15T03:00:00.633Z,93.52
2019-05-15T03:02:31.040Z,93.46
2019-05-15T03:05:02.517Z,93.08
2019-05-15T03:07:32.847Z,92.94
2019-05-15T03:10:03.217Z,93.49
2019-05-15T03:12:33.394Z,93.41
2019-05-15T03:15:03.724Z,93.83
2019-05-15T03:17:34.087Z,93.80
2019-05-15T03:20:04.399Z,93.60
2019-05-15T03:22:34.660Z,93.59
2019-05-15T03:25:10.188Z,93.53
2019-05-15T03:27:39.418Z,93.31
2019-05-15T03:30:14.419Z,93.21
2019-05-15T03:32:52.938Z,93.78
2019-05-15T03:35:15.881Z,93.62
2019-05-15T03:37:49.181Z,93.72
2019-05-15T03:40:19.975Z,93.74
2019-05-15T03:42:50.401Z,93.67
2019-05-15T03:45:20.555Z,94.03
2019-05-15T03:47:50.831Z,94.07
2019-05-15T03:50:21.225Z,94.12
2019-05-15T03:52:51.499Z,94.07
2019-05-15T03:55:22.686Z,93.96
2019-05-15T03:57:58.874Z,94.08
2019-05-15T04:00:30.175Z,94.23
2019-05-15T04:02:59.865Z,94.40
2019-05-15T04:05:32.650Z,94.20
2019-05-15T04:08:03.033Z,93.98
2019-05-15T04:10:33.569Z,94.09
2019-05-15T04:13:03.755Z,94.22
2019-05-15T04:15:34.059Z,93.92
2019-05-15T04:18:04.156Z,94.21
2019-05-15T04:20:34.483Z,94.14
2019-05-15T04:23:04.948Z,94.19
2019-05-15T04:25:35.481Z,94.78
2019-05-15T04:28:09.650Z,94.80
2019-05-15T04:30:40.009Z,94.53
2019-05-15T04:33:11.225Z,94.29
2019-05-15T04:35:41.369Z,93.83
2019-05-15T04:38:11.635Z,93.42
2019-05-15T04:40:42.283Z,92.35
2019-05-15T04:43:13.854Z,91.78
2019-05-15T04:45:44.103Z,91.35
2019-05-15T04:48:14.313Z,91.02
2019-05-15T04:50:50.960Z,90.94
2019-05-15T04:53:21.339Z,91.11
2019-05-15T04:55:52.052Z,91.40
2019-05-15T04:58:22.712Z,91.88
2019-05-15T05:00:59.951Z,91.47
2019-05-15T05:03:34.578Z,90.83
2019-05-15T05:06:05.348Z,90.36
2019-05-15T05:08:36.041Z,89.24
2019-05-15T05:11:09.445Z,87.13
2019-05-15T05:13:40.942Z,84.49
2019-05-15T05:16:11.735Z,83.03
2019-05-15T05:18:43.896Z,80.64
2019-05-15T05:21:14.750Z,77.42
2019-05-15T05:23:45.012Z,76.18
2019-05-15T05:26:15.260Z,73.67
2019-05-15T05:28:45.694Z,73.25
2019-05-15T05:31:18.876Z,72.06
2019-05-15T05:33:48.663Z,71.04
2019-05-15T05:36:19.487Z,70.64
2019-05-15T05:38:51.115Z,68.92
2019-05-15T05:41:21.472Z,66.65
2019-05-15T05:43:51.775Z,66.51
2019-05-15T05:46:23.883Z,65.92
2019-05-15T05:48:54.239Z,64.90
2019-05-15T05:51:24.496Z,63.39
2019-05-15T05:53:54.786Z,62.51
2019-05-15T05:56:25.506Z,61.36
2019-05-15T05:58:58.406Z,59.02
2019-05-15T06:01:28.323Z,59.09
2019-05-15T06:03:58.922Z,59.08
2019-05-15T06:06:31.012Z,56.61
2019-05-15T06:09:01.231Z,55.11
2019-05-15T06:11:32.655Z,53.81
2019-05-15T06:14:03.040Z,51.55
2019-05-15T06:16:34.654Z,49.06
2019-05-15T06:19:05.297Z,47.60
2019-05-15T06:21:37.826Z,48.57
2019-05-15T06:24:12.945Z,46.83
2019-05-15T06:26:39.452Z,45.89
2019-05-15T06:29:09.637Z,45.01
2019-05-15T06:31:40.789Z,45.25
2019-05-15T06:34:11.170Z,41.95
2019-05-15T06:36:41.459Z,42.74
2019-05-15T06:39:11.823Z,41.16
2019-05-15T06:41:42.510Z,42.12
2019-05-15T06:44:12.805Z,40.87
2019-05-15T06:46:43.107Z,40.06
2019-05-15T06:49:13.588Z,40.03
2019-05-15T06:51:43.906Z,37.57
2019-05-15T06:54:14.115Z,39.14
2019-05-15T06:56:44.317Z,38.05
2019-05-15T06:59:14.450Z,37.65
2019-05-15T07:01:45.005Z,36.20
2019-05-15T07:04:15.345Z,37.27
2019-05-15T07:06:45.620Z,35.62
2019-05-15T07:09:17.921Z,36.25
2019-05-15T07:11:48.485Z,37.04
2019-05-15T07:14:18.913Z,36.58
2019-05-15T07:16:49.295Z,34.89
2019-05-15T07:19:19.565Z,34.31
2019-05-15T07:21:49.751Z,33.44
2019-05-15T07:24:21.198Z,31.83
2019-05-15T07:26:51.531Z,32.38
2019-05-15T07:29:21.791Z,33.84
2019-05-15T07:31:52.193Z,34.33
2019-05-15T07:34:22.772Z,34.52
2019-05-15T07:36:52.958Z,33.48
2019-05-15T07:39:23.153Z,33.61
2019-05-15T07:41:53.671Z,31.68
2019-05-15T07:44:23.817Z,30.23
2019-05-15T07:46:54.133Z,30.32
2019-05-15T07:49:24.674Z,29.03
2019-05-15T07:51:54.984Z,28.32
2019-05-15T07:54:25.272Z,28.78
2019-05-15T07:56:55.528Z,30.22
2019-05-15T07:59:27.807Z,29.56
2019-05-15T08:01:58.354Z,27.50
2019-05-15T08:04:32.633Z,28.27
2019-05-15T08:07:01.113Z,26.49
2019-05-15T08:09:31.393Z,25.83
2019-05-15T08:12:03.595Z,26.82
2019-05-15T08:14:33.947Z,28.70
2019-05-15T08:17:04.198Z,28.32
2019-05-15T08:19:34.446Z,27.39
2019-05-15T08:22:04.700Z,26.12
2019-05-15T08:24:35.547Z,25.15
2019-05-15T08:27:08.211Z,24.58
2019-05-15T08:29:39.556Z,26.03
2019-05-15T08:32:09.882Z,24.08
2019-05-15T08:34:40.181Z,24.29
2019-05-15T08:37:10.703Z,23.83
2019-05-15T08:39:40.923Z,24.33
2019-05-15T08:42:11.285Z,23.40
2019-05-15T08:44:41.771Z,22.71
2019-05-15T08:47:13.787Z,21.87
2019-05-15T08:49:44.157Z,21.50
2019-05-15T08:52:14.597Z,21.82
2019-05-15T08:54:44.818Z,22.09
2019-05-15T08:57:16.104Z,21.47
2019-05-15T08:59:48.704Z,20.38
2019-05-15T09:02:18.855Z,18.73
2019-05-15T09:04:50.260Z,18.43
2019-05-15T09:07:20.885Z,18.68
2019-05-15T09:09:51.538Z,20.67
2019-05-15T09:12:21.843Z,21.65
2019-05-15T09:14:53.268Z,20.52
2019-05-15T09:17:23.663Z,19.13
2019-05-15T09:19:56.072Z,18.50
2019-05-15T09:22:25.797Z,18.20
2019-05-15T09:24:58.820Z,19.27
2019-05-15T09:27:28.852Z,20.02
2019-05-15T09:29:59.437Z,19.27
2019-05-15T09:32:29.754Z,18.89
2019-05-15T09:35:00.411Z,18.64
2019-05-15T09:37:33.535Z,19.77
2019-05-15T09:40:02.765Z,19.08
2019-05-15T09:42:33.775Z,20.00
2019-05-15T09:45:04.535Z,21.26
2019-05-15T09:47:39.166Z,20.63
2019-05-15T09:50:08.482Z,20.08
2019-05-15T09:52:39.093Z,20.75
2019-05-15T09:55:10.582Z,21.33
2019-05-15T09:57:40.982Z,23.12
2019-05-15T10:00:12.057Z,24.23
2019-05-15T10:02:42.405Z,24.80
2019-05-15T10:05:14.016Z,24.42
2019-05-15T10:07:44.217Z,22.66
2019-05-15T10:10:14.690Z,21.95
2019-05-15T10:12:45.080Z,20.89
2019-05-15T10:15:18.662Z,18.65
2019-05-15T10:17:50.913Z,18.79
2019-05-15T10:20:21.287Z,18.31
2019-05-15T10:22:54.767Z,22.04
2019-05-15T10:25:24.073Z,20.41
2019-05-15T10:27:54.258Z,21.81
2019-05-15T10:30:28.239Z,22.17
2019-05-15T10:32:57.685Z,21.81
2019-05-15T10:35:31.495Z,21.10
2019-05-15T10:38:00.043Z,20.71
2019-05-15T10:40:30.293Z,21.59
2019-05-15T10:43:00.631Z,23.77
2019-05-15T10:45:31.462Z,22.45
2019-05-15T10:48:01.763Z,21.31
2019-05-15T10:50:32.523Z,19.98
2019-05-15T10:53:03.896Z,18.13
2019-05-15T10:55:34.581Z,18.93
2019-05-15T10:58:16.582Z,20.68
2019-05-15T11:00:44.213Z,21.54
2019-05-15T11:03:15.239Z,23.36
2019-05-15T11:05:48.946Z,24.06
2019-05-15T11:08:19.172Z,24.73
2019-05-15T11:10:50.855Z,24.03
2019-05-15T11:13:21.580Z,24.35
2019-05-15T11:15:52.404Z,25.71
2019-05-15T11:18:23.529Z,26.36
2019-05-15T11:20:54.410Z,24.77
2019-05-15T11:23:25.864Z,21.78
2019-05-15T11:26:01.260Z,22.76
2019-05-15T11:28:32.576Z,25.52
2019-05-15T11:31:03.226Z,26.39
2019-05-15T11:33:33.779Z,26.62
2019-05-15T11:36:06.265Z,27.36
2019-05-15T11:38:38.263Z,26.75
2019-05-15T11:41:10.054Z,27.45
2019-05-15T11:43:40.374Z,27.14
2019-05-15T11:46:10.764Z,27.50
2019-05-15T11:48:41.594Z,26.85
2019-05-15T11:51:11.972Z,25.22
2019-05-15T11:53:42.503Z,25.50
2019-05-15T11:56:13.143Z,25.38
2019-05-15T11:58:43.530Z,26.64
2019-05-15T12:01:14.197Z,27.22
2019-05-15T12:03:45.705Z,28.07
2019-05-15T12:06:21.980Z,27.86
2019-05-15T12:08:48.974Z,26.01
2019-05-15T12:11:32.044Z,22.54
2019-05-15T12:13:51.980Z,21.96
2019-05-15T12:16:22.602Z,21.55
2019-05-15T12:18:53.059Z,21.24
2019-05-15T12:21:23.749Z,24.56
2019-05-15T12:23:54.276Z,27.10
2019-05-15T12:26:24.665Z,25.34
2019-05-15T12:28:58.466Z,23.36
2019-05-15T12:31:27.622Z,21.70
2019-05-15T12:33:58.844Z,20.36
2019-05-15T12:36:51.392Z,20.44
2019-05-15T12:39:09.341Z,20.97
2019-05-15T13:01:54.463Z,29.08
2019-05-15T13:04:25.187Z,30.14
2019-05-15T13:07:12.114Z,28.77
2019-05-15T13:09:27.871Z,27.91
2019-05-15T13:11:58.778Z,28.63
2019-05-15T13:14:29.255Z,29.89
2019-05-15T13:16:59.761Z,29.89
2019-05-15T13:19:30.509Z,30.81
2019-05-15T13:22:01.745Z,31.83
2019-05-15T13:24:32.785Z,31.47
2019-05-15T13:27:05.303Z,29.35
2019-05-15T13:29:35.795Z,29.95
2019-05-15T13:32:08.040Z,30.58
2019-05-15T13:34:39.033Z,29.59
2019-05-15T13:37:09.854Z,31.53
2019-05-15T13:39:41.194Z,31.23
2019-05-15T13:42:12.039Z,32.38
2019-05-15T13:44:42.485Z,33.07
2019-05-15T13:47:12.754Z,32.76
2019-05-15T13:49:44.665Z,31.65
2019-05-15T13:52:15.178Z,32.04
2019-05-15T13:54:48.244Z,31.81
2019-05-15T13:57:18.180Z,31.81
2019-05-15T13:59:48.707Z,30.48
2019-05-15T14:02:19.063Z,29.17
2019-05-15T14:04:49.581Z,29.84
2019-05-15T14:07:20.103Z,29.70
2019-05-15T14:09:50.699Z,31.30
2019-05-15T14:12:23.158Z,32.44
2019-05-15T14:14:53.533Z,33.82
2019-05-15T14:17:24.582Z,33.02
2019-05-15T14:19:54.837Z,33.63
2019-05-15T14:22:25.162Z,32.68
2019-05-15T14:24:55.622Z,31.84
2019-05-15T14:27:28.987Z,33.01
2019-05-15T14:29:58.535Z,31.89
2019-05-15T14:32:38.495Z,31.45
2019-05-15T14:35:02.355Z,31.36
2019-05-15T14:37:32.845Z,31.00
2019-05-15T14:40:03.282Z,31.94
2019-05-15T14:42:39.498Z,32.30
2019-05-15T14:45:10.044Z,33.19
2019-05-15T14:47:40.477Z,33.88
2019-05-15T14:50:11.046Z,34.02
2019-05-15T14:52:41.310Z,33.84
2019-05-15T14:55:12.417Z,34.09
2019-05-15T14:57:42.731Z,34.21
2019-05-15T15:00:13.452Z,34.59
2019-05-15T15:02:43.676Z,34.02
2019-05-15T15:05:14.271Z,33.09
2019-05-15T15:07:44.994Z,33.55
2019-05-15T15:10:19.721Z,32.94
2019-05-15T15:12:49.949Z,33.11
2019-05-15T15:15:20.676Z,33.46
2019-05-15T15:17:50.909Z,34.09
2019-05-15T15:20:21.410Z,32.80
2019-05-15T15:22:51.639Z,31.56
2019-05-15T15:25:24.419Z,32.10
2019-05-15T15:27:55.499Z,32.09
2019-05-15T15:30:25.983Z,33.80
2019-05-15T15:32:57.685Z,33.90
2019-05-15T15:35:28.885Z,35.27
2019-05-15T15:37:59.473Z,34.08
2019-05-15T15:40:29.647Z,34.16
2019-05-15T15:42:59.859Z,36.07
2019-05-15T15:45:30.298Z,34.30
2019-05-15T15:48:00.984Z,34.33
2019-05-15T15:50:31.402Z,34.83
2019-05-15T15:53:01.835Z,34.96
2019-05-15T15:55:32.531Z,34.98
2019-05-15T15:58:02.808Z,35.46
2019-05-15T16:00:33.099Z,36.10
2019-05-15T16:03:03.337Z,35.38
2019-05-15T16:05:33.774Z,36.33
2019-05-15T16:08:04.485Z,36.75
2019-05-15T16:10:34.997Z,37.40
2019-05-15T16:13:05.380Z,37.70
2019-05-15T16:15:38.242Z,36.89
2019-05-15T16:18:09.011Z,36.58
2019-05-15T16:20:39.821Z,36.35
2019-05-15T16:23:13.097Z,36.41
2019-05-15T16:25:44.610Z,36.86
2019-05-15T16:28:15.133Z,35.81
2019-05-15T16:30:51.130Z,35.88
2019-05-15T16:33:18.410Z,37.32
2019-05-15T16:35:49.290Z,36.96
2019-05-15T16:38:19.497Z,37.43
2019-05-15T16:40:49.780Z,37.43
2019-05-15T16:43:20.140Z,37.60
2019-05-15T16:45:52.229Z,36.90
2019-05-15T16:48:22.596Z,37.94
2019-05-15T16:50:55.259Z,37.86
2019-05-15T16:53:25.702Z,39.21
2019-05-15T16:55:58.674Z,39.21
2019-05-15T16:58:29.883Z,39.58
2019-05-15T17:01:00.385Z,39.75
2019-05-15T17:03:30.924Z,40.50
2019-05-15T17:06:01.448Z,40.08
2019-05-15T17:08:32.391Z,40.00
2019-05-15T17:11:02.786Z,39.90
2019-05-15T17:13:32.980Z,39.88
2019-05-15T17:16:03.271Z,40.16
2019-05-15T17:18:33.532Z,40.37
2019-05-15T17:21:03.915Z,41.26
2019-05-15T17:23:34.854Z,42.00
2019-05-15T17:26:05.092Z,42.86
2019-05-15T17:28:35.387Z,42.99
2019-05-15T17:31:05.794Z,42.79
2019-05-15T17:33:38.089Z,42.70
2019-05-15T17:36:12.021Z,42.56
2019-05-15T17:38:43.852Z,42.61
2019-05-15T17:41:14.193Z,42.75
2019-05-15T17:43:45.537Z,42.74
2019-05-15T17:46:16.009Z,43.28
2019-05-15T17:48:54.234Z,43.16
2019-05-15T17:51:18.589Z,43.23
2019-05-15T17:53:49.021Z,43.10
2019-05-15T17:56:19.221Z,44.00
2019-05-15T17:58:49.574Z,43.70
2019-05-15T18:01:20.222Z,43.35
2019-05-15T18:03:50.877Z,42.86
2019-05-15T18:06:21.454Z,42.60
2019-05-15T18:08:52.148Z,42.88
2019-05-15T18:11:22.415Z,42.40
2019-05-15T18:13:53.415Z,41.92
2019-05-15T18:16:23.857Z,41.83
2019-05-15T18:18:54.792Z,41.26
2019-05-15T18:21:26.051Z,41.28
2019-05-15T18:23:58.654Z,41.92
2019-05-15T18:26:29.117Z,42.84
2019-05-15T18:28:59.623Z,42.43
2019-05-15T18:31:30.121Z,42.39
2019-05-15T18:34:00.900Z,41.84
2019-05-15T18:36:31.284Z,41.22
2019-05-15T18:39:02.074Z,41.11
2019-05-15T18:41:33.872Z,40.76
2019-05-15T18:44:04.605Z,40.59
2019-05-15T18:46:38.043Z,41.34
2019-05-15T18:49:07.937Z,41.34
2019-05-15T18:51:38.651Z,41.14
2019-05-15T18:54:09.398Z,40.91
2019-05-15T18:56:40.053Z,40.90
2019-05-15T18:59:10.759Z,41.40
2019-05-15T19:01:41.472Z,41.64
2019-05-15T19:04:12.198Z,41.94
2019-05-15T19:06:43.829Z,41.94
2019-05-15T19:09:14.498Z,42.71
2019-05-15T19:11:44.853Z,42.61
2019-05-15T19:14:15.595Z,43.15
2019-05-15T19:16:48.437Z,43.35
2019-05-15T19:19:19.263Z,43.88
2019-05-15T19:21:49.796Z,43.99
2019-05-15T19:24:21.400Z,43.98
2019-05-15T19:26:51.970Z,44.13
2019-05-15T19:29:23.163Z,44.43
2019-05-15T19:31:54.107Z,44.35
2019-05-15T19:34:24.874Z,44.76
2019-05-15T19:36:55.334Z,45.18
2019-05-15T19:39:28.001Z,45.45
2019-05-15T19:41:58.559Z,45.48
2019-05-15T19:44:29.018Z,45.87
2019-05-15T19:47:00.452Z,46.38
2019-05-15T19:49:31.284Z,46.73
2019-05-15T19:52:02.084Z,47.55
2019-05-15T19:54:32.740Z,47.66
2019-05-15T19:57:08.041Z,48.36
2019-05-15T19:59:39.010Z,49.92
2019-05-15T20:02:09.927Z,49.89
2019-05-15T20:04:40.561Z,49.81
2019-05-15T20:07:11.039Z,49.56
2019-05-15T20:09:41.679Z,49.95
2019-05-15T20:12:12.393Z,50.01
2019-05-15T20:14:44.268Z,50.03
2019-05-15T20:17:15.071Z,50.00
2019-05-15T20:19:45.880Z,49.77
2019-05-15T20:22:18.704Z,50.26
2019-05-15T20:24:49.011Z,50.24
2019-05-15T20:27:19.899Z,50.51
2019-05-15T20:29:50.516Z,49.91
2019-05-15T20:32:21.097Z,50.39
2019-05-15T20:34:51.644Z,50.71
2019-05-15T20:37:22.434Z,50.98
2019-05-15T20:39:53.151Z,51.08
2019-05-15T20:42:23.445Z,51.75
2019-05-15T20:44:54.087Z,51.58
2019-05-15T20:47:27.902Z,51.45
2019-05-15T20:49:57.872Z,51.58
2019-05-15T20:52:28.678Z,51.37
2019-05-15T20:54:59.505Z,51.47
2019-05-15T20:57:30.685Z,52.03
2019-05-15T21:00:02.058Z,55.15
2019-05-15T21:02:33.064Z,55.75
2019-05-15T21:05:03.608Z,56.17
2019-05-15T21:07:39.223Z,56.34
2019-05-15T21:10:09.456Z,56.85
2019-05-15T21:12:41.364Z,58.21
2019-05-15T21:15:12.372Z,58.76
2019-05-15T21:17:44.578Z,59.65
2019-05-15T21:20:18.079Z,60.38
2019-05-15T21:22:49.251Z,60.34
2019-05-15T21:25:20.110Z,60.90
2019-05-15T21:27:50.605Z,61.60
2019-05-15T21:30:21.285Z,62.55
2019-05-15T21:32:51.524Z,62.64
2019-05-15T21:35:21.709Z,62.49
2019-05-15T21:37:51.990Z,62.27
2019-05-15T21:40:22.167Z,62.94
2019-05-15T21:42:52.743Z,63.62
2019-05-15T21:45:23.036Z,65.47
2019-05-15T21:47:53.433Z,65.19
2019-05-15T21:50:23.551Z,64.95
2019-05-15T21:52:54.029Z,65.35
2019-05-15T21:55:24.235Z,65.36
2019-05-15T21:57:54.633Z,65.50
2019-05-15T22:00:32.483Z,65.75
2019-05-15T22:03:04.505Z,66.01
2019-05-15T22:05:34.685Z,66.47
2019-05-15T22:08:04.874Z,66.52
2019-05-15T22:10:35.153Z,67.90
2019-05-15T22:13:05.956Z,67.54
2019-05-15T22:15:36.343Z,68.16
2019-05-15T22:18:10.841Z,67.96
2019-05-15T22:20:39.442Z,68.44
2019-05-15T22:23:09.665Z,68.23
2019-05-15T22:25:40.208Z,68.92
2019-05-15T22:28:11.103Z,68.68
2019-05-15T22:30:41.700Z,69.04
2019-05-15T22:33:12.253Z,70.02
2019-05-15T22:35:42.587Z,70.24
2019-05-15T22:38:12.830Z,70.31
2019-05-15T22:40:43.549Z,71.04
2019-05-15T22:43:13.897Z,71.73
2019-05-15T22:45:44.683Z,71.51
2019-05-15T22:48:15.135Z,72.13
2019-05-15T22:50:45.273Z,72.50
2019-05-15T22:53:17.852Z,73.66
2019-05-15T22:55:48.474Z,72.60
2019-05-15T22:58:21.296Z,73.00
2019-05-15T23:00:51.508Z,73.43
2019-05-15T23:03:21.838Z,74.14
2019-05-15T23:05:52.046Z,74.20
2019-05-15T23:08:22.260Z,74.27
2019-05-15T23:10:52.704Z,74.12
2019-05-15T23:13:28.379Z,74.46
2019-05-15T23:15:59.994Z,75.85
2019-05-15T23:18:30.527Z,75.43
2019-05-15T23:21:00.930Z,75.53
2019-05-15T23:23:31.144Z,75.85
2019-05-15T23:26:01.650Z,75.57
2019-05-15T23:28:31.906Z,75.93
2019-05-15T23:31:02.045Z,76.29
2019-05-15T23:33:32.360Z,76.41
2019-05-15T23:36:02.609Z,76.36
2019-05-15T23:38:32.964Z,77.74
2019-05-15T23:41:03.307Z,77.90
2019-05-15T23:43:33.604Z,77.91
2019-05-15T23:46:04.029Z,78.50
2019-05-15T23:48:34.314Z,80.76
2019-05-15T23:51:04.479Z,82.07
2019-05-15T23:53:34.842Z,82.95
2019-05-15T23:56:04.984Z,82.54
2019-05-15T23:58:35.462Z,82.68
